XBSEB MMJC-MMMX
Flight info
| Callsign | XBSEB |
|---|---|
| Flight time | 0h 23m |
| Altitude | 8500 |
| Route | DCT |
| Aircraft | BE36/L-SD/C |
Departure
| Time | 2026-05-04 16:23 |
|---|---|
| Airport | Jorge Jiménez Cantú National Airport (MMJC) |
Arrival
| Time | 2026-05-04 16:46 |
|---|---|
| Airport | Mexico City Benito Juárez International Airport (MMMX) |
| Time | Latitude | Longitude | Altitude | Speed | Heading |
|---|---|---|---|---|---|
| 2026-05-04 16:13 | 19.57201 | -99.29305 | 8331 ft | 0 kts | 309° |
| 2026-05-04 16:17 | 19.57187 | -99.29303 | 8332 ft | 7 kts | 226° |
| 2026-05-04 16:18 | 19.57044 | -99.29460 | 8353 ft | 15 kts | 217° |
| 2026-05-04 16:18 | 19.57059 | -99.29374 | 8349 ft | 29 kts | 46° |
| 2026-05-04 16:19 | 19.57457 | -99.28925 | 8300 ft | 63 kts | 46° |
| 2026-05-04 16:19 | 19.57603 | -99.28764 | 8286 ft | 0 kts | 43° |
| 2026-05-04 16:20 | 19.57528 | -99.28846 | 8295 ft | 32 kts | 226° |
| 2026-05-04 16:20 | 19.57122 | -99.29306 | 8340 ft | 34 kts | 228° |
| 2026-05-04 16:21 | 19.57347 | -99.29050 | 8312 ft | 91 kts | 46° |
| 2026-05-04 16:22 | 19.58325 | -99.27854 | 8519 ft | 122 kts | 69° |
| 2026-05-04 16:22 | 19.56397 | -99.26689 | 8509 ft | 169 kts | 201° |
| 2026-05-04 16:23 | 19.53177 | -99.27006 | 8815 ft | 150 kts | 153° |
| 2026-05-04 16:24 | 19.49794 | -99.23951 | 8840 ft | 160 kts | 138° |
| 2026-05-04 16:25 | 19.47898 | -99.22827 | 8865 ft | 163 kts | 172° |
| 2026-05-04 16:26 | 19.43591 | -99.21364 | 8623 ft | 162 kts | 153° |
| 2026-05-04 16:26 | 19.40683 | -99.19584 | 8504 ft | 159 kts | 142° |
| 2026-05-04 16:27 | 19.38599 | -99.18980 | 8581 ft | 158 kts | 166° |
| 2026-05-04 16:28 | 19.35635 | -99.17797 | 8459 ft | 146 kts | 124° |
| 2026-05-04 16:28 | 19.34908 | -99.14949 | 8369 ft | 136 kts | 54° |
| 2026-05-04 16:29 | 19.37060 | -99.11636 | 8541 ft | 129 kts | 60° |
| 2026-05-04 16:30 | 19.38514 | -99.09306 | 8327 ft | 122 kts | 20° |
| 2026-05-04 16:31 | 19.40096 | -99.09847 | 8283 ft | 116 kts | 332° |
| 2026-05-04 16:31 | 19.41788 | -99.10255 | 7787 ft | 97 kts | 69° |
| 2026-05-04 16:32 | 19.42770 | -99.08474 | 7384 ft | 94 kts | 62° |
| 2026-05-04 16:33 | 19.43285 | -99.07540 | 7298 ft | 69 kts | 59° |
| 2026-05-04 16:33 | 19.44020 | -99.06352 | 7554 ft | 104 kts | 58° |
| 2026-05-04 16:34 | 19.44671 | -99.04934 | 7937 ft | 108 kts | 63° |
| 2026-05-04 16:34 | 19.44927 | -99.04190 | 8104 ft | 112 kts | 93° |
| 2026-05-04 16:35 | 19.42684 | -99.02903 | 8392 ft | 144 kts | 162° |
| 2026-05-04 16:35 | 19.40635 | -99.04438 | 8772 ft | 127 kts | 245° |
| 2026-05-04 16:36 | 19.40215 | -99.05236 | 8749 ft | 122 kts | 237° |
| 2026-05-04 16:36 | 19.39340 | -99.06760 | 8656 ft | 122 kts | 238° |
| 2026-05-04 16:37 | 19.38443 | -99.08303 | 8752 ft | 123 kts | 239° |
| 2026-05-04 16:37 | 19.37972 | -99.09057 | 8806 ft | 117 kts | 248° |
| 2026-05-04 16:37 | 19.38715 | -99.10301 | 8472 ft | 112 kts | 333° |
| 2026-05-04 16:38 | 19.40062 | -99.11132 | 8278 ft | 114 kts | 334° |
| 2026-05-04 16:39 | 19.41696 | -99.10584 | 7871 ft | 109 kts | 70° |
| 2026-05-04 16:39 | 19.42258 | -99.09387 | 7506 ft | 88 kts | 63° |
| 2026-05-04 16:40 | 19.42873 | -99.08272 | 7329 ft | 87 kts | 60° |
| 2026-05-04 16:40 | 19.43315 | -99.07491 | 7298 ft | 56 kts | 60° |
| 2026-05-04 16:41 | 19.43986 | -99.06352 | 7607 ft | 107 kts | 60° |
| 2026-05-04 16:41 | 19.44266 | -99.04031 | 8453 ft | 136 kts | 145° |
| 2026-05-04 16:42 | 19.41863 | -99.04359 | 8811 ft | 133 kts | 243° |
| 2026-05-04 16:43 | 19.40911 | -99.06067 | 8869 ft | 133 kts | 242° |
| 2026-05-04 16:43 | 19.39919 | -99.07758 | 8886 ft | 138 kts | 237° |
| 2026-05-04 16:43 | 19.39428 | -99.08629 | 8955 ft | 137 kts | 243° |
| 2026-05-04 16:44 | 19.40567 | -99.10981 | 8106 ft | 119 kts | 342° |
| 2026-05-04 16:45 | 19.41643 | -99.10434 | 7822 ft | 96 kts | 68° |
| 2026-05-04 16:46 | 19.42650 | -99.08667 | 7398 ft | 90 kts | 62° |
| 2026-05-04 16:46 | 19.43139 | -99.07798 | 7299 ft | 48 kts | 58° |
| 2026-05-04 16:47 | 19.43197 | -99.07694 | 7299 ft | 0 kts | 55° |